Time;durP1;ratioP1;P1;durP2;ratioP2;P2;SDS_P1;SDS_P2;PMS_P1;PMS_P2;Temp;Humidity;BMP_temperature;BMP_pressure;BME280_temperature;BME280_humidity;BME280_pressure;Samples;Min_cycle;Max_cycle;Signal;HPM_P1;HPM_P2
2021/12/02 00:02:20;;;;;;;4.97;2.45;;;;;;;6.84;100.00;98877.97;5015693;28;20100;-66
2021/12/02 00:05:04;;;;;;;4.20;2.03;;;;;;;6.92;100.00;98870.09;5015700;28;20057;-66
2021/12/02 00:07:51;;;;;;;3.60;1.92;;;;;;;6.90;100.00;98885.31;5000474;28;20045;-66
2021/12/02 00:10:35;;;;;;;4.15;1.90;;;;;;;6.94;100.00;98878.72;4987133;28;20092;-65
2021/12/02 00:13:23;;;;;;;3.47;2.08;;;;;;;6.93;100.00;98882.34;5000611;28;20161;-65
2021/12/02 00:22:01;;;;;;;5.38;2.30;;;;;;;6.97;100.00;98872.28;5003099;28;20135;-65
2021/12/02 00:24:47;;;;;;;4.20;2.10;;;;;;;6.92;100.00;98875.41;5000966;28;20049;-66
2021/12/02 00:27:33;;;;;;;6.15;2.85;;;;;;;6.93;100.00;98877.06;4986519;28;20105;-66
2021/12/02 00:30:17;;;;;;;4.10;2.40;;;;;;;6.92;100.00;98872.75;5000229;28;20133;-66
2021/12/02 00:33:01;;;;;;;3.42;2.30;;;;;;;6.91;100.00;98878.19;5015137;28;20514;-65
2021/12/02 00:35:46;;;;;;;5.93;2.72;;;;;;;6.93;100.00;98879.72;5000188;28;20096;-66
2021/12/02 00:38:30;;;;;;;4.32;2.55;;;;;;;6.90;100.00;98887.13;4999873;28;20076;-64
2021/12/02 00:41:16;;;;;;;5.30;2.40;;;;;;;6.89;100.00;98881.00;4999832;28;20045;-66
2021/12/02 00:44:00;;;;;;;7.25;2.28;;;;;;;6.87;100.00;98885.63;5014885;28;20407;-66
2021/12/02 00:46:45;;;;;;;3.40;2.22;;;;;;;6.82;100.00;98885.25;5000068;28;20053;-66
2021/12/02 00:49:29;;;;;;;4.18;2.50;;;;;;;6.83;100.00;98886.91;5000019;28;20411;-66
2021/12/02 00:52:14;;;;;;;8.48;3.20;;;;;;;6.86;100.00;98876.00;4999994;28;20410;-66
2021/12/02 00:54:59;;;;;;;3.72;2.10;;;;;;;6.82;100.00;98873.81;4999820;28;20079;-66
2021/12/02 00:57:44;;;;;;;4.63;2.22;;;;;;;6.90;100.00;98887.13;4985840;28;20510;-66
2021/12/02 01:00:29;;;;;;;7.25;2.40;;;;;;;6.83;100.00;98878.97;4999731;28;20044;-66
2021/12/02 01:03:14;;;;;;;3.00;2.00;;;;;;;6.85;100.00;98873.50;4999661;28;20053;-66
2021/12/02 01:05:59;;;;;;;3.28;2.20;;;;;;;6.78;100.00;98883.88;4999671;28;20096;-66
2021/12/02 01:08:43;;;;;;;3.28;2.10;;;;;;;6.84;100.00;98882.44;4999657;28;20072;-66
2021/12/02 01:11:27;;;;;;;3.08;2.22;;;;;;;6.80;100.00;98879.28;4999449;28;20096;-66
2021/12/02 01:14:11;;;;;;;3.40;1.83;;;;;;;6.85;100.00;98884.94;4999411;28;20469;-65
2021/12/02 01:16:55;;;;;;;3.38;1.85;;;;;;;6.81;100.00;98888.06;4999297;28;20557;-66
2021/12/02 01:19:39;;;;;;;6.03;1.92;;;;;;;6.77;100.00;98879.56;4999582;28;20045;-66
2021/12/02 01:22:24;;;;;;;9.75;2.47;;;;;;;6.77;100.00;98881.41;4999382;28;20049;-66
2021/12/02 01:25:08;;;;;;;8.02;2.33;;;;;;;6.73;100.00;98886.19;4999137;28;20044;-66
2021/12/02 01:27:52;;;;;;;7.18;2.50;;;;;;;6.67;100.00;98886.78;5013629;28;20057;-66
2021/12/02 01:30:35;;;;;;;4.43;2.35;;;;;;;6.64;100.00;98897.69;4998991;28;20052;-66
2021/12/02 01:33:22;;;;;;;9.27;2.50;;;;;;;6.58;100.00;98874.44;4998931;28;20171;-66
2021/12/02 01:36:06;;;;;;;5.95;2.45;;;;;;;6.55;100.00;98888.00;4999033;28;20087;-66
2021/12/02 01:38:52;;;;;;;7.70;2.85;;;;;;;6.51;100.00;98886.66;4985256;28;20135;-66
2021/12/02 01:41:45;;;;;;;6.65;2.85;;;;;;;6.51;100.00;98889.31;4998958;28;20478;-66
2021/12/02 01:44:29;;;;;;;3.13;2.50;;;;;;;6.45;100.00;98889.09;4984946;28;20049;-66
2021/12/02 01:47:14;;;;;;;5.63;2.35;;;;;;;6.43;100.00;98888.38;4998586;28;20069;-65
2021/12/02 01:50:01;;;;;;;3.60;2.40;;;;;;;6.47;100.00;98885.28;4998965;28;20061;-66
2021/12/02 01:52:45;;;;;;;5.15;2.75;;;;;;;6.51;100.00;98886.66;4999445;28;20057;-66
2021/12/02 01:55:29;;;;;;;8.85;2.72;;;;;;;6.53;100.00;98894.44;5013409;28;20052;-66
2021/12/02 01:58:15;;;;;;;3.83;2.53;;;;;;;6.47;100.00;98890.56;4998482;28;20103;-66
2021/12/02 02:01:00;;;;;;;9.43;2.50;;;;;;;6.47;100.00;98887.09;5013559;28;20044;-66
2021/12/02 02:03:44;;;;;;;6.57;2.33;;;;;;;6.38;100.00;98891.47;4998674;28;20355;-65
2021/12/02 02:06:50;;;;;;;3.83;1.95;;;;;;;6.46;100.00;98880.97;5013460;28;20140;-65
2021/12/02 02:09:34;;;;;;;5.13;2.00;;;;;;;6.40;100.00;98886.88;4998334;28;20045;-66
2021/12/02 02:12:19;;;;;;;8.13;2.50;;;;;;;6.35;100.00;98886.50;4998477;28;20048;-66
2021/12/02 02:15:03;;;;;;;3.55;2.20;;;;;;;6.33;100.00;98888.47;4998640;28;20092;-66
2021/12/02 02:18:02;;;;;;;4.25;1.80;;;;;;;6.33;100.00;98879.69;5013114;28;20096;-66
2021/12/02 02:21:02;;;;;;;3.25;2.22;;;;;;;6.28;100.00;98885.44;5000233;28;20048;-66
2021/12/02 02:23:55;;;;;;;8.43;2.03;;;;;;;6.30;100.00;98888.78;4998864;28;20044;-66
2021/12/02 02:26:39;;;;;;;3.83;2.03;;;;;;;6.32;100.00;98901.84;4999569;28;20088;-66
2021/12/02 02:29:23;;;;;;;3.22;2.05;;;;;;;6.23;100.00;98895.63;5013027;28;20789;-65
2021/12/02 02:32:07;;;;;;;4.22;1.83;;;;;;;6.14;100.00;98904.47;4984551;28;20515;-66
2021/12/02 02:34:52;;;;;;;6.53;2.45;;;;;;;6.09;100.00;98901.47;5011989;28;20048;-65
2021/12/02 02:37:37;;;;;;;3.95;1.83;;;;;;;6.11;100.00;98902.13;4998213;28;20103;-66
2021/12/02 02:40:23;;;;;;;2.47;1.60;;;;;;;6.07;100.00;98903.41;4997901;28;20045;-66
2021/12/02 02:43:08;;;;;;;3.92;2.28;;;;;;;6.09;100.00;98901.47;4984419;28;20048;-66
2021/12/02 02:45:53;;;;;;;2.20;1.45;;;;;;;6.06;100.00;98904.38;4998040;28;20104;-66
2021/12/02 02:48:37;;;;;;;5.13;1.65;;;;;;;6.09;100.00;98901.47;5012595;28;20088;-66
2021/12/02 02:51:21;;;;;;;3.50;1.45;;;;;;;6.06;100.00;98900.91;5012992;28;20139;-65
2021/12/02 02:54:08;;;;;;;3.88;1.75;;;;;;;6.07;100.00;98903.41;4997849;28;20410;-65
2021/12/02 02:56:59;;;;;;;3.88;1.65;;;;;;;6.07;100.00;98900.75;4997996;28;20080;-66
2021/12/02 03:05:44;;;;;;;3.25;1.60;;;;;;;6.17;100.00;98901.53;5000506;28;20111;-65
2021/12/02 03:08:40;;;;;;;5.88;1.90;;;;;;;6.23;100.00;98893.00;4999497;28;20044;-66
2021/12/02 03:11:26;;;;;;;4.43;1.45;;;;;;;6.23;100.00;98892.16;4999767;28;20152;-65
2021/12/02 03:14:16;;;;;;;9.75;1.42;;;;;;;6.26;100.00;98879.44;4997902;28;20053;-66
2021/12/02 03:17:00;;;;;;;3.95;1.92;;;;;;;6.27;100.00;98889.06;4998070;28;20100;-66
2021/12/02 03:19:45;;;;;;;5.18;1.48;;;;;;;6.30;100.00;98880.00;4997775;28;20561;-66
2021/12/02 03:22:29;;;;;;;4.07;1.48;;;;;;;6.29;100.00;98880.97;4997529;28;20473;-66
2021/12/02 03:25:13;;;;;;;2.60;1.30;;;;;;;6.28;100.00;98882.78;4997694;28;20115;-66
2021/12/02 03:27:57;;;;;;;4.65;1.50;;;;;;;6.32;100.00;98880.66;5012285;28;20415;-66
2021/12/02 03:30:40;;;;;;;2.45;1.30;;;;;;;6.36;100.00;98888.16;4984078;28;20107;-66
2021/12/02 03:33:24;;;;;;;2.95;1.75;;;;;;;6.34;100.00;98879.53;4997636;28;20411;-66
2021/12/02 03:36:09;;;;;;;4.55;1.58;;;;;;;6.38;100.00;98880.88;4997677;28;20060;-65
2021/12/02 03:38:53;;;;;;;3.80;1.55;;;;;;;6.37;100.00;98884.53;5012211;28;20045;-66
2021/12/02 03:41:39;;;;;;;4.90;2.05;;;;;;;6.38;100.00;98888.81;4997547;28;20049;-66
2021/12/02 03:44:24;;;;;;;3.60;1.58;;;;;;;6.33;100.00;98888.47;4997603;28;20096;-66
2021/12/02 03:47:08;;;;;;;6.55;1.65;;;;;;;6.45;100.00;98886.44;5012277;28;20574;-66
2021/12/02 03:49:52;;;;;;;5.22;1.90;;;;;;;6.32;100.00;98876.22;4997240;28;20530;-66
2021/12/02 03:52:36;;;;;;;;;;;;;;;6.30;100.00;98875.53;4985615;28;20077;-65
2021/12/02 03:55:20;;;;;;;5.83;2.07;;;;;;;6.27;100.00;98878.47;5000934;28;19920;-66
2021/12/02 03:58:04;;;;;;;1.65;1.20;;;;;;;6.28;100.00;98874.84;5015555;28;20104;-68
2021/12/02 04:00:48;;;;;;;2.90;1.50;;;;;;;6.28;100.00;98869.53;5016131;28;20064;-66
2021/12/02 04:03:32;;;;;;;;;;;;;;;6.35;100.00;98873.25;5001243;28;20486;-66
2021/12/02 04:06:16;;;;;;;4.77;1.60;;;;;;;6.29;100.00;98870.38;5000969;28;19936;-66
2021/12/02 04:14:41;;;;;;;1.52;1.00;;;;;;;6.26;100.00;98873.34;5001341;28;20137;-66
2021/12/02 04:17:43;;;;;;;5.57;1.30;;;;;;;6.32;100.00;98876.22;5015416;28;20081;-66
2021/12/02 04:20:27;;;;;;;4.05;1.15;;;;;;;6.24;100.00;98876.13;5003033;28;20049;-66
2021/12/02 04:23:11;;;;;;;3.58;1.27;;;;;;;6.28;100.00;98874.84;5000392;28;20180;-66
2021/12/02 04:25:55;;;;;;;;;;;;;;;6.30;100.00;98875.53;4987085;28;20067;-66
2021/12/02 04:28:39;;;;;;;1.48;1.05;;;;;;;6.26;100.00;98882.09;5014886;28;19943;-66
2021/12/02 04:31:23;;;;;;;3.80;1.60;;;;;;;6.34;100.00;98874.25;5000258;28;20057;-66
2021/12/02 04:34:07;;;;;;;;;;;;;;;6.39;100.00;98885.22;5000618;28;20159;-66
2021/12/02 04:36:51;;;;;;;3.23;1.43;;;;;;;6.42;100.00;98882.28;4999981;28;19967;-65
2021/12/02 04:39:35;;;;;;;5.13;1.52;;;;;;;6.47;100.00;98877.34;5000269;28;20041;-66
2021/12/02 04:42:19;;;;;;;3.13;1.52;;;;;;;6.49;100.00;98878.03;5015231;28;20414;-66
2021/12/02 04:45:04;;;;;;;6.25;1.63;;;;;;;6.49;100.00;98880.69;5014932;28;20121;-66
2021/12/02 04:47:48;;;;;;;5.40;1.20;;;;;;;6.47;100.00;98882.63;5000084;28;20135;-65
2021/12/02 04:50:33;;;;;;;3.47;1.05;;;;;;;6.60;100.00;98885.75;5043160;22;20117;-65
2021/12/02 04:53:17;;;;;;;9.77;1.40;;;;;;;6.59;100.00;98886.72;5034401;28;20052;-64
2021/12/02 04:56:01;;;;;;;1.90;1.00;;;;;;;6.60;100.00;98883.09;5034505;28;20128;-65
2021/12/02 04:58:45;;;;;;;2.40;1.20;;;;;;;6.65;100.00;98883.47;5034637;28;20466;-65
2021/12/02 05:01:29;;;;;;;6.70;1.45;;;;;;;6.66;100.00;98879.81;5019292;28;20056;-66
2021/12/02 05:04:13;;;;;;;6.18;1.40;;;;;;;6.63;100.00;98890.72;5019133;28;20115;-65
2021/12/02 05:06:56;;;;;;;2.22;1.27;;;;;;;6.63;100.00;98888.09;5034246;28;20413;-66
2021/12/02 05:09:40;;;;;;;;;;;;;;;6.68;100.00;98883.13;5034607;28;20048;-66
2021/12/02 05:12:25;;;;;;;3.13;1.77;;;;;;;6.61;100.00;98882.13;5034231;28;20011;-66
2021/12/02 05:15:09;;;;;;;1.75;1.25;;;;;;;6.57;100.00;98867.50;5034098;28;20076;-65
2021/12/02 05:17:53;;;;;;;2.92;1.25;;;;;;;6.60;100.00;98869.88;5033990;28;20048;-65
2021/12/02 05:20:37;;;;;;;4.32;1.70;;;;;;;6.55;100.00;98882.72;5033954;28;20509;-64
2021/12/02 05:23:21;;;;;;;3.83;1.30;;;;;;;6.51;100.00;98870.78;5034471;28;20131;-65
2021/12/02 05:26:05;;;;;;;2.75;1.40;;;;;;;6.52;100.00;98861.84;5033954;28;20068;-66
2021/12/02 05:28:51;;;;;;;3.85;1.00;;;;;;;6.51;100.00;98864.63;5004635;28;20048;-66
2021/12/02 05:31:35;;;;;;;3.00;1.40;;;;;;;6.52;100.00;98856.56;5033636;28;20054;-64
2021/12/02 05:34:19;;;;;;;1.92;0.80;;;;;;;6.37;100.00;98852.75;5033826;28;20075;-64
2021/12/02 05:37:04;;;;;;;6.32;1.65;;;;;;;6.41;100.00;98859.44;5033705;28;20129;-64
2021/12/02 05:39:48;;;;;;;3.17;1.42;;;;;;;6.39;100.00;98856.13;5018594;28;20052;-64
2021/12/02 05:42:32;;;;;;;3.03;1.20;;;;;;;6.32;100.00;98846.25;5033615;28;20052;-66
2021/12/02 05:45:16;;;;;;;2.67;1.40;;;;;;;6.39;100.00;98845.53;5004665;28;20051;-65
2021/12/02 05:48:00;;;;;;;4.57;2.10;;;;;;;6.39;100.00;98837.59;5018289;28;20048;-65
2021/12/02 05:50:44;;;;;;;3.20;1.58;;;;;;;6.34;100.00;98839.03;5033398;28;20032;-64
2021/12/02 05:53:27;;;;;;;3.15;1.50;;;;;;;6.34;100.00;98844.31;5018643;28;20467;-64
2021/12/02 05:56:11;;;;;;;3.15;1.77;;;;;;;6.38;100.00;98838.53;5033523;28;20091;-65
2021/12/02 05:58:55;;;;;;;3.45;1.50;;;;;;;6.36;100.00;98845.81;5018585;28;20155;-66
2021/12/02 06:01:42;;;;;;;2.67;1.67;;;;;;;6.39;100.00;98849.97;5017973;28;20103;-66
2021/12/02 06:04:26;;;;;;;3.83;1.52;;;;;;;6.41;100.00;98842.72;5033133;28;20052;-65
2021/12/02 06:07:10;;;;;;;2.78;1.33;;;;;;;6.36;100.00;98843.16;5018228;28;20111;-65
2021/12/02 06:09:54;;;;;;;3.42;1.75;;;;;;;6.37;100.00;98857.25;5017792;28;20132;-66
2021/12/02 06:12:38;;;;;;;4.47;1.52;;;;;;;6.37;100.00;98842.19;5017916;28;20095;-65
2021/12/02 06:15:23;;;;;;;4.75;2.10;;;;;;;6.42;100.00;98841.72;5032516;28;20056;-64
2021/12/02 06:18:08;;;;;;;5.47;1.83;;;;;;;6.46;100.00;98841.25;5032824;28;20083;-65
2021/12/02 06:20:54;;;;;;;4.57;2.40;;;;;;;6.45;100.00;98839.59;5004038;28;20056;-66
2021/12/02 06:23:41;;;;;;;4.78;2.17;;;;;;;6.44;100.00;98832.66;5018076;28;20052;-66
2021/12/02 06:26:25;;;;;;;4.55;1.83;;;;;;;6.45;100.00;98844.91;5018059;28;20055;-66
2021/12/02 06:29:09;;;;;;;2.60;1.55;;;;;;;6.43;100.00;98846.88;5017900;28;20048;-64
2021/12/02 06:31:52;;;;;;;6.15;2.05;;;;;;;6.49;100.00;98846.28;5017430;28;20052;-66
2021/12/02 06:34:36;;;;;;;;;;;;;;;6.54;100.00;98853.72;5017741;28;20095;-64
2021/12/02 06:37:21;;;;;;;3.75;1.70;;;;;;;6.52;100.00;98856.56;5032556;28;20250;-66
2021/12/02 06:40:07;;;;;;;3.15;1.83;;;;;;;6.55;100.00;98850.13;5032610;28;20060;-66
2021/12/02 06:42:51;;;;;;;2.70;1.48;;;;;;;6.46;100.00;98856.34;5017578;28;20080;-66
2021/12/02 06:45:35;;;;;;;;;;;;;;;6.50;100.00;98842.63;5004252;28;20060;-63
2021/12/02 06:48:19;;;;;;;4.15;2.75;;;;;;;6.45;100.00;98854.66;5017405;28;19920;-67
2021/12/02 06:51:03;;;;;;;3.08;2.05;;;;;;;6.39;100.00;98861.41;5032228;28;20099;-66
2021/12/02 06:53:49;;;;;;;3.70;2.28;;;;;;;6.36;100.00;98859.03;5017669;28;20390;-66
2021/12/02 06:56:33;;;;;;;4.40;2.17;;;;;;;6.36;100.00;98858.22;5032601;28;20413;-65
2021/12/02 06:59:17;;;;;;;6.57;2.67;;;;;;;6.41;100.00;98855.94;5032598;28;20254;-66
2021/12/02 07:02:01;;;;;;;5.90;1.92;;;;;;;6.26;100.00;98860.94;5017421;28;20048;-66
2021/12/02 07:04:45;;;;;;;8.80;2.53;;;;;;;6.32;100.00;98854.19;5017515;28;20552;-66
2021/12/02 07:07:36;;;;;;;4.47;2.70;;;;;;;6.29;100.00;98863.31;5003724;28;20057;-65
2021/12/02 07:10:24;;;;;;;5.50;2.05;;;;;;;6.29;100.00;98865.09;5032339;28;20041;-65
2021/12/02 07:13:09;;;;;;;4.72;2.60;;;;;;;6.27;100.00;98867.06;5032478;28;20060;-65
2021/12/02 07:15:54;;;;;;;6.47;2.70;;;;;;;6.30;100.00;98864.97;5017241;28;20414;-66
2021/12/02 07:18:42;;;;;;;3.80;2.20;;;;;;;6.25;100.00;98869.03;5017416;28;20187;-66
2021/12/02 07:21:27;;;;;;;5.45;2.60;;;;;;;6.29;100.00;98871.25;5003778;28;20064;-66
2021/12/02 07:24:13;;;;;;;4.88;2.85;;;;;;;6.27;100.00;98875.00;5032490;28;20052;-63
2021/12/02 07:26:57;;;;;;;11.27;2.90;;;;;;;6.34;100.00;98881.38;5017550;28;20124;-65
2021/12/02 07:29:41;;;;;;;6.18;2.78;;;;;;;6.36;100.00;98877.56;5020856;28;20410;-67
2021/12/02 07:32:33;;;;;;;5.78;3.78;;;;;;;6.42;100.00;98882.28;5035606;28;20048;-67
2021/12/02 07:35:17;;;;;;;4.82;2.65;;;;;;;6.37;100.00;98894.28;5021066;28;20053;-65
2021/12/02 07:38:02;;;;;;;8.32;2.97;;;;;;;6.41;100.00;98887.69;5020787;28;20106;-64
2021/12/02 07:40:46;;;;;;;7.43;2.80;;;;;;;6.45;100.00;98892.53;5020628;28;20440;-66
2021/12/02 07:43:33;;;;;;;3.97;2.47;;;;;;;6.46;100.00;98898.69;5035707;28;20044;-66
2021/12/02 07:46:17;;;;;;;3.53;2.22;;;;;;;6.38;100.00;98899.41;5035511;28;20468;-66
2021/12/02 07:49:01;;;;;;;4.95;2.47;;;;;;;6.41;100.00;98907.06;5020297;28;20044;-66
2021/12/02 07:51:45;;;;;;;5.22;2.17;;;;;;;6.47;100.00;98903.00;5035096;28;20052;-66
2021/12/02 07:54:32;;;;;;;4.90;2.40;;;;;;;6.37;100.00;98911.00;5035450;28;20095;-65
2021/12/02 07:57:16;;;;;;;4.60;2.55;;;;;;;6.24;100.00;98915.81;5006919;28;20455;-66
2021/12/02 08:00:01;;;;;;;5.40;2.88;;;;;;;6.37;100.00;98910.16;5020304;28;20056;-66
2021/12/02 08:02:46;;;;;;;4.63;3.40;;;;;;;6.32;100.00;98913.28;5020018;28;20095;-64
2021/12/02 08:05:31;;;;;;;5.18;2.95;;;;;;;6.25;100.00;98922.78;5020038;28;20075;-66
2021/12/02 08:08:14;;;;;;;7.70;3.00;;;;;;;6.19;100.00;98923.41;5035365;28;20509;-65
2021/12/02 08:10:58;;;;;;;8.13;3.65;;;;;;;6.15;100.00;98919.38;5035020;28;20613;-63
2021/12/02 08:13:42;;;;;;;7.03;3.95;;;;;;;6.20;100.00;98930.34;5035396;28;20132;-65
2021/12/02 08:16:26;;;;;;;15.80;4.30;;;;;;;6.23;100.00;98924.75;5005941;28;20049;-65
2021/12/02 08:19:10;;;;;;;8.15;4.50;;;;;;;6.25;100.00;98936.00;5035148;28;20072;-65
2021/12/02 08:21:54;;;;;;;14.77;4.50;;;;;;;6.21;100.00;98937.31;5034694;28;20114;-65
2021/12/02 08:24:38;;;;;;;7.05;4.40;;;;;;;6.22;100.00;98938.97;5035301;28;20068;-65
2021/12/02 08:27:22;;;;;;;12.20;4.50;;;;;;;6.26;100.00;98934.22;5035185;28;20123;-65
2021/12/02 08:30:09;;;;;;;11.60;4.82;;;;;;;6.30;100.00;98925.81;5019870;28;20068;-65
2021/12/02 08:32:54;;;;;;;12.82;5.07;;;;;;;6.22;100.00;98927.53;4992146;28;20143;-65
2021/12/02 08:35:38;;;;;;;11.32;5.00;;;;;;;6.19;100.00;98939.28;5019590;28;20084;-63
2021/12/02 08:38:31;;;;;;;10.32;4.10;;;;;;;6.23;100.00;98942.44;5019165;28;20099;-65
2021/12/02 08:41:18;;;;;;;8.60;4.30;;;;;;;6.28;100.00;98943.63;5020659;28;20060;-64
2021/12/02 08:44:02;;;;;;;12.40;4.50;;;;;;;6.34;100.00;98943.06;5019934;28;20051;-65
2021/12/02 08:46:47;;;;;;;10.45;4.20;;;;;;;6.40;100.00;98952.22;5034364;28;20060;-65
2021/12/02 08:49:32;;;;;;;5.70;3.65;;;;;;;6.43;100.00;98958.03;5034308;28;20053;-65
2021/12/02 08:52:15;;;;;;;6.47;3.80;;;;;;;6.47;100.00;98958.59;5034136;28;20089;-65
2021/12/02 08:54:59;;;;;;;6.90;4.18;;;;;;;6.46;100.00;98959.56;5033976;28;20080;-65
2021/12/02 08:57:45;;;;;;;7.03;4.13;;;;;;;6.55;100.00;98963.97;5019302;28;20052;-65
2021/12/02 09:00:35;;;;;;;9.05;3.58;;;;;;;6.58;100.00;98975.06;5034000;28;20080;-65
2021/12/02 09:03:19;;;;;;;4.93;2.97;;;;;;;6.58;100.00;98967.13;5034419;28;20461;-65
2021/12/02 09:06:02;;;;;;;6.05;3.20;;;;;;;6.55;100.00;98972.72;5005125;28;20094;-65
2021/12/02 09:08:46;;;;;;;6.07;2.67;;;;;;;6.40;100.00;98971.59;5033776;28;20064;-65
2021/12/02 09:11:33;;;;;;;3.45;2.60;;;;;;;6.32;100.00;98975.94;5019079;28;20119;-65
2021/12/02 09:14:16;;;;;;;2.08;1.45;;;;;;;6.14;100.00;98989.13;5033931;28;20517;-66
2021/12/02 09:17:00;;;;;;;3.78;2.42;;;;;;;5.99;100.00;98982.69;5018912;28;20517;-65
2021/12/02 09:19:44;;;;;;;3.88;2.00;;;;;;;6.02;100.00;98995.59;5033869;28;20116;-64
2021/12/02 09:22:29;;;;;;;3.33;2.15;;;;;;;6.05;100.00;98990.00;5018389;28;20118;-66
2021/12/02 09:25:14;;;;;;;4.75;2.25;;;;;;;6.25;100.00;98996.88;5018816;28;20123;-65
2021/12/02 09:27:58;;;;;;;4.22;1.83;;;;;;;6.26;100.00;98998.53;5033409;28;20046;-66
2021/12/02 09:30:42;;;;;;;3.22;2.10;;;;;;;6.33;100.00;99004.91;5018725;28;20224;-65
2021/12/02 09:33:27;;;;;;;6.45;2.20;;;;;;;6.41;100.00;99002.38;5018656;28;20525;-65
2021/12/02 09:36:11;;;;;;;3.67;2.17;;;;;;;6.45;100.00;99005.56;5033889;28;20052;-66
2021/12/02 09:38:55;;;;;;;;;;;;;;;6.53;100.00;99014.41;5033813;28;20414;-65
2021/12/02 09:41:40;;;;;;;2.23;1.77;;;;;;;6.52;100.00;99020.69;5033287;28;19919;-65
2021/12/02 09:44:24;;;;;;;4.38;1.98;;;;;;;6.52;100.00;99019.84;5018146;28;20056;-66
2021/12/02 09:47:08;;;;;;;4.47;2.03;;;;;;;6.57;100.00;99018.41;5033098;28;20160;-65
2021/12/02 09:49:52;;;;;;;3.65;1.92;;;;;;;6.62;100.00;99016.16;5017202;28;20064;-66
2021/12/02 09:52:39;;;;;;;;;;;;;;;6.71;100.00;99022.38;5018500;28;20048;-66
2021/12/02 09:55:25;;;;;;;2.15;1.50;;;;;;;6.77;100.00;99019.13;5004610;28;19971;-66
2021/12/02 09:58:18;;;;;;;3.42;1.98;;;;;;;6.84;100.00;99017.53;5018831;28;20099;-66
2021/12/02 10:01:12;;;;;;;3.28;1.88;;;;;;;6.87;100.00;99020.72;5018844;28;20130;-65
2021/12/02 10:04:02;;;;;;;2.53;1.25;;;;;;;6.62;100.00;99021.44;5033275;28;20052;-65
2021/12/02 10:06:46;;;;;;;3.40;1.60;;;;;;;6.62;100.00;99021.44;5018750;28;20044;-65
2021/12/02 10:09:39;;;;;;;2.55;1.10;;;;;;;6.69;100.00;99021.69;5017938;28;20048;-65
2021/12/02 10:12:24;;;;;;;2.50;1.40;;;;;;;6.64;100.00;99014.19;5017897;28;20505;-65
2021/12/02 10:15:14;;;;;;;4.28;1.30;;;;;;;6.63;100.00;99011.69;5017996;28;20083;-67
2021/12/02 10:18:09;;;;;;;1.73;1.30;;;;;;;6.70;100.00;99012.75;5032903;28;20067;-65
2021/12/02 10:20:53;;;;;;;1.50;1.23;;;;;;;6.53;100.00;99022.34;5032498;28;20048;-65
2021/12/02 10:23:46;;;;;;;1.48;1.20;;;;;;;6.53;100.00;99022.34;5017700;28;20130;-66
2021/12/02 10:26:35;;;;;;;1.80;1.20;;;;;;;6.56;100.00;99022.03;5018179;28;20048;-67
2021/12/02 10:29:31;;;;;;;3.22;1.20;;;;;;;6.65;100.00;99018.50;5017838;28;20045;-67
2021/12/02 10:32:25;;;;;;;3.97;1.20;;;;;;;6.68;100.00;99020.84;5017742;28;20056;-67
2021/12/02 10:35:13;;;;;;;3.13;1.35;;;;;;;6.60;100.00;99006.69;5017783;28;20134;-66
2021/12/02 10:37:57;;;;;;;3.33;1.20;;;;;;;6.62;100.00;99005.56;5017967;28;20111;-66
2021/12/02 10:40:41;;;;;;;1.27;1.15;;;;;;;6.63;100.00;99006.38;5032611;28;20072;-66
2021/12/02 10:43:25;;;;;;;1.70;1.40;;;;;;;6.64;100.00;99008.91;5032745;28;20398;-66
2021/12/02 10:46:16;;;;;;;2.00;1.10;;;;;;;6.75;100.00;99006.03;5017493;28;20052;-66
2021/12/02 10:49:01;;;;;;;1.70;1.25;;;;;;;6.70;100.00;99013.59;5032305;28;20085;-66
2021/12/02 10:51:50;;;;;;;2.10;1.30;;;;;;;6.75;100.00;99016.63;5032063;28;20096;-66
2021/12/02 10:54:36;;;;;;;1.73;1.17;;;;;;;6.70;100.00;99012.75;5126462;22;20057;-65
2021/12/02 10:57:23;;;;;;;1.85;1.33;;;;;;;6.78;100.00;99012.84;4997826;28;20063;-66
2021/12/02 11:00:15;;;;;;;1.90;1.38;;;;;;;6.80;100.00;99014.38;4997822;28;20407;-66
2021/12/02 11:03:08;;;;;;;1.55;1.27;;;;;;;6.84;100.00;99021.00;5001522;28;20173;-65
2021/12/02 11:05:52;;;;;;;1.63;1.25;;;;;;;6.90;100.00;99015.13;5016949;28;20159;-64
2021/12/02 11:08:36;;;;;;;1.42;1.10;;;;;;;6.68;100.00;99012.91;5001469;28;20076;-65
2021/12/02 11:11:23;;;;;;;4.43;1.23;;;;;;;6.85;100.00;99006.78;5016580;28;20052;-65
2021/12/02 11:14:12;;;;;;;2.95;1.42;;;;;;;6.85;100.00;99001.50;4987549;28;20068;-65
2021/12/02 11:17:06;;;;;;;1.83;1.40;;;;;;;6.84;100.00;98993.69;5001717;28;20127;-65
2021/12/02 11:19:51;;;;;;;1.65;1.30;;;;;;;6.94;100.00;98995.28;5016197;28;20403;-64
2021/12/02 11:22:35;;;;;;;1.48;1.20;;;;;;;6.82;100.00;98996.50;4987737;28;20099;-65
2021/12/02 11:25:19;;;;;;;2.13;1.45;;;;;;;6.92;100.00;98997.25;4987585;28;20088;-65
2021/12/02 11:28:06;;;;;;;1.65;1.40;;;;;;;6.85;100.00;98996.19;4988049;28;20053;-65
2021/12/02 11:30:50;;;;;;;2.70;1.35;;;;;;;6.86;100.00;98997.84;5001283;28;20084;-65
2021/12/02 11:33:36;;;;;;;8.05;1.40;;;;;;;6.81;100.00;99004.59;5016110;28;20100;-65
2021/12/02 11:36:22;;;;;;;1.50;1.40;;;;;;;6.79;100.00;98991.47;5015835;28;20052;-64
2021/12/02 11:39:08;;;;;;;3.17;1.30;;;;;;;6.68;100.00;98993.53;5016253;28;20045;-65
2021/12/02 11:41:52;;;;;;;1.55;1.40;;;;;;;6.68;100.00;99002.31;5001400;28;20454;-65
2021/12/02 11:44:36;;;;;;;3.30;1.50;;;;;;;6.78;100.00;99002.25;4986986;28;20061;-66
2021/12/02 11:47:20;;;;;;;4.22;1.50;;;;;;;6.86;100.00;99002.34;5001135;28;20053;-65
2021/12/02 11:50:07;;;;;;;3.60;1.58;;;;;;;6.95;100.00;99010.19;5000796;28;20099;-66
2021/12/02 11:52:51;;;;;;;3.45;1.90;;;;;;;6.85;100.00;99001.50;5015707;28;20096;-65
2021/12/02 11:55:39;;;;;;;2.88;1.95;;;;;;;6.82;100.00;99004.44;5015497;28;20509;-65
2021/12/02 11:58:23;;;;;;;5.38;2.92;;;;;;;6.72;100.00;99000.19;5000692;28;20095;-65
2021/12/02 12:01:16;;;;;;;4.97;2.10;;;;;;;6.74;100.00;99009.66;4987062;28;20060;-66
2021/12/02 12:04:08;;;;;;;2.90;1.60;;;;;;;6.76;100.00;99012.97;4986726;28;20045;-65
2021/12/02 12:06:55;;;;;;;3.72;2.00;;;;;;;6.89;100.00;99008.13;5001000;28;20074;-65
2021/12/02 12:09:39;;;;;;;6.28;2.55;;;;;;;6.82;100.00;99012.41;5000329;28;20049;-66
2021/12/02 12:12:36;;;;;;;3.47;1.80;;;;;;;6.92;100.00;99007.84;5000356;28;20095;-66
2021/12/02 12:15:38;;;;;;;4.50;2.15;;;;;;;6.93;100.00;99003.38;4986903;28;20545;-66
2021/12/02 12:18:41;;;;;;;3.65;2.00;;;;;;;7.04;100.00;99009.28;4986622;28;20045;-66
2021/12/02 12:21:39;;;;;;;2.47;1.60;;;;;;;7.00;100.00;99009.75;5001044;28;20545;-66
2021/12/02 12:24:43;;;;;;;1.95;1.40;;;;;;;6.87;100.00;99010.09;5000247;28;20052;-64
2021/12/02 12:27:30;;;;;;;4.90;1.35;;;;;;;6.74;100.00;99017.59;5015056;28;20180;-65
2021/12/02 12:30:18;;;;;;;3.03;1.70;;;;;;;6.56;97.67;99016.75;5015240;28;20093;-66
2021/12/02 12:33:06;;;;;;;1.13;0.88;;;;;;;6.48;96.61;99015.84;5015127;28;20092;-66
2021/12/02 12:38:42;;;;;;;2.35;1.13;;;;;;;6.53;100.00;99021.50;5000986;28;20476;-65
2021/12/02 12:41:25;;;;;;;2.45;0.93;;;;;;;6.40;99.69;99021.88;5015035;28;20510;-66
2021/12/02 12:44:09;;;;;;;1.80;0.70;;;;;;;6.50;97.51;99032.41;4999760;28;20095;-66
2021/12/02 12:46:54;;;;;;;1.50;0.80;;;;;;;6.45;92.78;99035.47;5000078;28;20490;-66
2021/12/02 12:49:38;;;;;;;2.00;0.90;;;;;;;6.46;93.84;99036.34;4999809;28;20100;-64
2021/12/02 12:52:22;;;;;;;1.05;0.80;;;;;;;6.42;90.58;99024.34;4999548;28;20068;-66
2021/12/02 12:55:16;;;;;;;1.70;0.70;;;;;;;6.57;92.71;99017.59;4999595;28;20048;-66
2021/12/02 12:58:12;;;;;;;2.33;0.90;;;;;;;6.55;90.76;99030.16;4986503;28;20049;-64
2021/12/02 13:01:08;;;;;;;1.10;0.90;;;;;;;6.54;90.95;99029.31;5014578;28;20068;-66
2021/12/02 13:04:11;;;;;;;3.88;0.80;;;;;;;6.62;90.92;99021.44;4999821;28;20049;-66
2021/12/02 13:07:13;;;;;;;3.58;1.85;;;;;;;6.65;91.51;99022.97;4999783;28;20052;-66
2021/12/02 13:10:14;;;;;;;1.15;0.77;;;;;;;6.70;91.78;99032.13;5014825;28;20045;-66
2021/12/02 13:12:58;;;;;;;1.02;0.60;;;;;;;6.67;89.02;99029.78;5000235;28;20053;-66
2021/12/02 13:15:42;;;;;;;0.63;0.63;;;;;;;6.69;90.32;99027.78;4985951;28;20044;-66
2021/12/02 13:18:31;;;;;;;3.25;0.80;;;;;;;6.77;90.43;99035.00;5014674;28;20091;-66
2021/12/02 13:21:27;;;;;;;1.20;0.70;;;;;;;6.74;90.44;99036.13;4999471;28;20171;-66
2021/12/02 13:24:19;;;;;;;1.30;0.80;;;;;;;6.70;88.50;99032.13;5014160;28;20479;-66
2021/12/02 13:27:08;;;;;;;2.67;0.60;;;;;;;6.80;89.53;99040.00;4999647;28;20096;-66